sensor_id;sensor_type;location;lat;lon;timestamp;temperature;humidity
45329;DHT22;31063;48.356;10.896;2022-09-14T00:02:23;19.50;99.90
45329;DHT22;31063;48.356;10.896;2022-09-14T00:04:49;19.50;99.90
45329;DHT22;31063;48.356;10.896;2022-09-14T00:07:16;19.40;99.90
45329;DHT22;31063;48.356;10.896;2022-09-14T00:09:41;19.40;99.90
45329;DHT22;31063;48.356;10.896;2022-09-14T00:12:08;19.40;99.90
45329;DHT22;31063;48.356;10.896;2022-09-14T00:14:34;19.40;99.90
45329;DHT22;31063;48.356;10.896;2022-09-14T00:17:00;19.40;99.90
45329;DHT22;31063;48.356;10.896;2022-09-14T00:19:26;19.30;99.90
45329;DHT22;31063;48.356;10.896;2022-09-14T00:21:57;19.40;99.90
45329;DHT22;31063;48.356;10.896;2022-09-14T00:24:24;19.30;99.90
45329;DHT22;31063;48.356;10.896;2022-09-14T00:26:50;19.30;99.90
45329;DHT22;31063;48.356;10.896;2022-09-14T00:29:16;19.30;99.90
45329;DHT22;31063;48.356;10.896;2022-09-14T00:31:42;19.30;99.90
45329;DHT22;31063;48.356;10.896;2022-09-14T00:34:11;19.30;99.90
45329;DHT22;31063;48.356;10.896;2022-09-14T00:36:40;19.20;99.90
45329;DHT22;31063;48.356;10.896;2022-09-14T00:39:06;19.20;99.90
45329;DHT22;31063;48.356;10.896;2022-09-14T00:41:35;19.20;99.90
45329;DHT22;31063;48.356;10.896;2022-09-14T00:49:08;19.20;99.90
45329;DHT22;31063;48.356;10.896;2022-09-14T00:51:36;19.20;99.90
45329;DHT22;31063;48.356;10.896;2022-09-14T00:54:04;19.10;99.90
45329;DHT22;31063;48.356;10.896;2022-09-14T00:56:32;19.10;99.90
45329;DHT22;31063;48.356;10.896;2022-09-14T00:59:01;19.10;99.90
45329;DHT22;31063;48.356;10.896;2022-09-14T01:01:29;19.10;99.90
45329;DHT22;31063;48.356;10.896;2022-09-14T01:03:55;19.10;99.90
45329;DHT22;31063;48.356;10.896;2022-09-14T01:06:33;19.10;99.90
45329;DHT22;31063;48.356;10.896;2022-09-14T01:09:14;19.10;99.90
45329;DHT22;31063;48.356;10.896;2022-09-14T01:11:58;19.10;99.90
45329;DHT22;31063;48.356;10.896;2022-09-14T01:22:39;19.10;99.90
45329;DHT22;31063;48.356;10.896;2022-09-14T01:27:54;19.10;99.90
45329;DHT22;31063;48.356;10.896;2022-09-14T01:30:22;19.00;99.90
45329;DHT22;31063;48.356;10.896;2022-09-14T01:35:42;19.00;99.90
45329;DHT22;31063;48.356;10.896;2022-09-14T01:40:55;19.00;99.90
45329;DHT22;31063;48.356;10.896;2022-09-14T01:43:58;19.00;99.90
45329;DHT22;31063;48.356;10.896;2022-09-14T01:46:43;19.00;99.90
45329;DHT22;31063;48.356;10.896;2022-09-14T01:51:59;18.90;99.90
45329;DHT22;31063;48.356;10.896;2022-09-14T01:54:31;19.00;99.90
45329;DHT22;31063;48.356;10.896;2022-09-14T01:57:18;18.90;99.90
45329;DHT22;31063;48.356;10.896;2022-09-14T01:59:46;19.00;99.90
45329;DHT22;31063;48.356;10.896;2022-09-14T02:02:20;19.00;99.90
45329;DHT22;31063;48.356;10.896;2022-09-14T02:07:22;19.00;99.90
45329;DHT22;31063;48.356;10.896;2022-09-14T02:09:49;18.90;99.90
45329;DHT22;31063;48.356;10.896;2022-09-14T02:12:16;18.90;99.90
45329;DHT22;31063;48.356;10.896;2022-09-14T02:14:43;18.90;99.90
45329;DHT22;31063;48.356;10.896;2022-09-14T02:17:10;18.90;99.90
45329;DHT22;31063;48.356;10.896;2022-09-14T02:19:41;18.90;99.90
45329;DHT22;31063;48.356;10.896;2022-09-14T02:22:08;18.90;99.90
45329;DHT22;31063;48.356;10.896;2022-09-14T02:24:34;18.90;99.90
45329;DHT22;31063;48.356;10.896;2022-09-14T02:27:01;19.00;99.90
45329;DHT22;31063;48.356;10.896;2022-09-14T02:29:26;18.90;99.90
45329;DHT22;31063;48.356;10.896;2022-09-14T02:32:42;19.00;99.90
45329;DHT22;31063;48.356;10.896;2022-09-14T02:40:28;18.90;99.90
45329;DHT22;31063;48.356;10.896;2022-09-14T02:46:07;18.90;99.90
45329;DHT22;31063;48.356;10.896;2022-09-14T02:54:12;18.90;99.90
45329;DHT22;31063;48.356;10.896;2022-09-14T02:56:39;18.90;99.90
45329;DHT22;31063;48.356;10.896;2022-09-14T02:59:04;18.80;99.90
45329;DHT22;31063;48.356;10.896;2022-09-14T03:01:30;18.80;99.90
45329;DHT22;31063;48.356;10.896;2022-09-14T03:03:56;18.80;99.90
45329;DHT22;31063;48.356;10.896;2022-09-14T03:06:21;18.80;99.90
45329;DHT22;31063;48.356;10.896;2022-09-14T03:08:48;18.80;99.90
45329;DHT22;31063;48.356;10.896;2022-09-14T03:11:14;18.80;99.90
45329;DHT22;31063;48.356;10.896;2022-09-14T03:13:40;18.90;99.90
45329;DHT22;31063;48.356;10.896;2022-09-14T03:16:14;18.80;99.90
45329;DHT22;31063;48.356;10.896;2022-09-14T03:18:40;18.80;99.90
45329;DHT22;31063;48.356;10.896;2022-09-14T03:21:09;18.80;99.90
45329;DHT22;31063;48.356;10.896;2022-09-14T03:23:40;18.80;99.90
45329;DHT22;31063;48.356;10.896;2022-09-14T03:26:11;18.80;99.90
45329;DHT22;31063;48.356;10.896;2022-09-14T03:28:37;18.80;99.90
45329;DHT22;31063;48.356;10.896;2022-09-14T03:31:05;18.80;99.90
45329;DHT22;31063;48.356;10.896;2022-09-14T03:33:31;18.80;99.90
45329;DHT22;31063;48.356;10.896;2022-09-14T03:35:57;18.80;99.90
45329;DHT22;31063;48.356;10.896;2022-09-14T03:38:23;18.80;99.90
45329;DHT22;31063;48.356;10.896;2022-09-14T03:40:51;18.70;99.90
45329;DHT22;31063;48.356;10.896;2022-09-14T03:43:17;18.70;99.90
45329;DHT22;31063;48.356;10.896;2022-09-14T03:45:43;18.80;99.90
45329;DHT22;31063;48.356;10.896;2022-09-14T03:48:09;18.70;99.90
45329;DHT22;31063;48.356;10.896;2022-09-14T03:50:36;18.70;99.90
45329;DHT22;31063;48.356;10.896;2022-09-14T03:53:02;18.70;99.90
45329;DHT22;31063;48.356;10.896;2022-09-14T03:55:29;18.70;99.90
45329;DHT22;31063;48.356;10.896;2022-09-14T03:57:55;18.70;99.90
45329;DHT22;31063;48.356;10.896;2022-09-14T04:00:21;18.70;99.90
45329;DHT22;31063;48.356;10.896;2022-09-14T04:02:47;18.70;99.90
45329;DHT22;31063;48.356;10.896;2022-09-14T04:05:12;18.70;99.90
45329;DHT22;31063;48.356;10.896;2022-09-14T04:07:38;18.60;99.90
45329;DHT22;31063;48.356;10.896;2022-09-14T04:10:04;18.60;99.90
45329;DHT22;31063;48.356;10.896;2022-09-14T04:12:37;18.60;99.90
45329;DHT22;31063;48.356;10.896;2022-09-14T04:15:06;18.60;99.90
45329;DHT22;31063;48.356;10.896;2022-09-14T04:17:32;18.60;99.90
45329;DHT22;31063;48.356;10.896;2022-09-14T04:19:58;18.60;99.90
45329;DHT22;31063;48.356;10.896;2022-09-14T04:22:24;18.60;99.90
45329;DHT22;31063;48.356;10.896;2022-09-14T04:24:49;18.60;99.90
45329;DHT22;31063;48.356;10.896;2022-09-14T04:27:15;18.60;99.90
45329;DHT22;31063;48.356;10.896;2022-09-14T04:29:41;18.60;99.90
45329;DHT22;31063;48.356;10.896;2022-09-14T04:32:07;18.60;99.90
45329;DHT22;31063;48.356;10.896;2022-09-14T04:34:33;18.60;99.90
45329;DHT22;31063;48.356;10.896;2022-09-14T04:37:00;18.50;99.90
45329;DHT22;31063;48.356;10.896;2022-09-14T04:39:25;18.50;99.90
45329;DHT22;31063;48.356;10.896;2022-09-14T04:41:51;18.50;99.90
45329;DHT22;31063;48.356;10.896;2022-09-14T04:44:16;18.50;99.90
45329;DHT22;31063;48.356;10.896;2022-09-14T04:46:42;18.50;99.90
45329;DHT22;31063;48.356;10.896;2022-09-14T04:49:08;18.50;99.90
45329;DHT22;31063;48.356;10.896;2022-09-14T04:51:35;18.50;99.90
45329;DHT22;31063;48.356;10.896;2022-09-14T04:54:03;18.60;99.90
45329;DHT22;31063;48.356;10.896;2022-09-14T04:56:31;18.60;99.90
45329;DHT22;31063;48.356;10.896;2022-09-14T04:58:59;18.60;99.90
45329;DHT22;31063;48.356;10.896;2022-09-14T05:01:28;18.60;99.90
45329;DHT22;31063;48.356;10.896;2022-09-14T05:03:54;18.60;99.90
45329;DHT22;31063;48.356;10.896;2022-09-14T05:06:28;18.60;99.90
45329;DHT22;31063;48.356;10.896;2022-09-14T05:08:55;18.60;99.90
45329;DHT22;31063;48.356;10.896;2022-09-14T05:11:29;18.60;99.90
45329;DHT22;31063;48.356;10.896;2022-09-14T05:13:56;18.60;99.90
45329;DHT22;31063;48.356;10.896;2022-09-14T05:16:27;18.60;99.90
45329;DHT22;31063;48.356;10.896;2022-09-14T05:18:55;18.60;99.90
45329;DHT22;31063;48.356;10.896;2022-09-14T05:21:22;18.60;99.90
45329;DHT22;31063;48.356;10.896;2022-09-14T05:23:56;18.70;99.90
45329;DHT22;31063;48.356;10.896;2022-09-14T05:26:23;18.70;99.90
45329;DHT22;31063;48.356;10.896;2022-09-14T05:28:50;18.70;99.90
45329;DHT22;31063;48.356;10.896;2022-09-14T05:31:17;18.70;99.90
45329;DHT22;31063;48.356;10.896;2022-09-14T05:33:43;18.70;99.90
45329;DHT22;31063;48.356;10.896;2022-09-14T05:36:09;18.70;99.90
45329;DHT22;31063;48.356;10.896;2022-09-14T05:38:37;18.80;99.90
45329;DHT22;31063;48.356;10.896;2022-09-14T05:41:04;18.80;99.90
45329;DHT22;31063;48.356;10.896;2022-09-14T05:43:31;18.80;99.90
45329;DHT22;31063;48.356;10.896;2022-09-14T05:46:04;18.80;99.90
45329;DHT22;31063;48.356;10.896;2022-09-14T05:48:32;18.80;99.90
45329;DHT22;31063;48.356;10.896;2022-09-14T05:50:59;18.90;99.90
45329;DHT22;31063;48.356;10.896;2022-09-14T05:53:26;18.90;99.90
45329;DHT22;31063;48.356;10.896;2022-09-14T05:56:03;18.90;99.90
45329;DHT22;31063;48.356;10.896;2022-09-14T05:58:29;18.90;99.90
45329;DHT22;31063;48.356;10.896;2022-09-14T06:00:55;18.90;99.90
45329;DHT22;31063;48.356;10.896;2022-09-14T06:03:21;19.00;99.90
45329;DHT22;31063;48.356;10.896;2022-09-14T06:05:46;19.00;99.90
45329;DHT22;31063;48.356;10.896;2022-09-14T06:08:12;19.10;99.90
45329;DHT22;31063;48.356;10.896;2022-09-14T06:10:37;19.10;99.90
45329;DHT22;31063;48.356;10.896;2022-09-14T06:13:03;19.10;99.90
45329;DHT22;31063;48.356;10.896;2022-09-14T06:15:29;19.20;99.90
45329;DHT22;31063;48.356;10.896;2022-09-14T06:17:54;19.20;99.90
45329;DHT22;31063;48.356;10.896;2022-09-14T06:20:20;19.20;99.90
45329;DHT22;31063;48.356;10.896;2022-09-14T06:22:45;19.20;99.90
45329;DHT22;31063;48.356;10.896;2022-09-14T06:25:11;19.20;99.90
45329;DHT22;31063;48.356;10.896;2022-09-14T06:27:37;19.30;99.90
45329;DHT22;31063;48.356;10.896;2022-09-14T06:30:03;19.30;99.90
45329;DHT22;31063;48.356;10.896;2022-09-14T06:32:30;19.40;99.90
45329;DHT22;31063;48.356;10.896;2022-09-14T06:34:55;19.40;99.90
45329;DHT22;31063;48.356;10.896;2022-09-14T06:37:21;19.40;99.90
45329;DHT22;31063;48.356;10.896;2022-09-14T06:39:47;19.40;99.90
45329;DHT22;31063;48.356;10.896;2022-09-14T06:42:12;19.50;99.90
45329;DHT22;31063;48.356;10.896;2022-09-14T06:44:38;19.50;99.90
45329;DHT22;31063;48.356;10.896;2022-09-14T06:47:05;19.50;99.90
45329;DHT22;31063;48.356;10.896;2022-09-14T06:49:31;19.60;99.90
45329;DHT22;31063;48.356;10.896;2022-09-14T06:51:56;19.60;99.90
45329;DHT22;31063;48.356;10.896;2022-09-14T06:54:22;19.60;99.90
45329;DHT22;31063;48.356;10.896;2022-09-14T06:56:49;19.70;99.90
45329;DHT22;31063;48.356;10.896;2022-09-14T06:59:16;19.70;99.90
45329;DHT22;31063;48.356;10.896;2022-09-14T07:01:42;19.70;99.90
45329;DHT22;31063;48.356;10.896;2022-09-14T07:04:12;19.80;99.90
45329;DHT22;31063;48.356;10.896;2022-09-14T07:06:46;19.90;99.90
45329;DHT22;31063;48.356;10.896;2022-09-14T07:09:13;19.90;99.90
45329;DHT22;31063;48.356;10.896;2022-09-14T07:11:40;20.00;99.90
45329;DHT22;31063;48.356;10.896;2022-09-14T07:14:07;20.10;99.90
45329;DHT22;31063;48.356;10.896;2022-09-14T07:16:34;20.10;99.90
45329;DHT22;31063;48.356;10.896;2022-09-14T07:19:03;20.20;99.90
45329;DHT22;31063;48.356;10.896;2022-09-14T07:21:30;20.30;99.90
45329;DHT22;31063;48.356;10.896;2022-09-14T07:23:56;20.30;99.90
45329;DHT22;31063;48.356;10.896;2022-09-14T07:26:24;20.40;99.90
45329;DHT22;31063;48.356;10.896;2022-09-14T07:28:58;20.50;99.90
45329;DHT22;31063;48.356;10.896;2022-09-14T07:31:27;20.60;99.90
45329;DHT22;31063;48.356;10.896;2022-09-14T07:33:58;20.60;99.90
45329;DHT22;31063;48.356;10.896;2022-09-14T07:36:25;20.70;99.90
45329;DHT22;31063;48.356;10.896;2022-09-14T07:38:51;20.80;99.90
45329;DHT22;31063;48.356;10.896;2022-09-14T07:41:17;20.90;99.90
45329;DHT22;31063;48.356;10.896;2022-09-14T07:43:47;20.90;99.90
45329;DHT22;31063;48.356;10.896;2022-09-14T07:46:13;21.00;99.90
45329;DHT22;31063;48.356;10.896;2022-09-14T07:48:39;21.10;99.90
45329;DHT22;31063;48.356;10.896;2022-09-14T07:51:06;21.20;99.90
45329;DHT22;31063;48.356;10.896;2022-09-14T07:53:37;21.30;99.90
45329;DHT22;31063;48.356;10.896;2022-09-14T07:56:12;21.30;99.90
45329;DHT22;31063;48.356;10.896;2022-09-14T07:58:39;21.40;99.90
45329;DHT22;31063;48.356;10.896;2022-09-14T08:01:06;21.40;99.90
45329;DHT22;31063;48.356;10.896;2022-09-14T08:03:34;21.50;99.90
45329;DHT22;31063;48.356;10.896;2022-09-14T08:06:10;21.60;99.90
45329;DHT22;31063;48.356;10.896;2022-09-14T08:08:37;21.70;99.90
45329;DHT22;31063;48.356;10.896;2022-09-14T08:11:09;21.80;99.90
45329;DHT22;31063;48.356;10.896;2022-09-14T08:13:37;21.90;99.90
45329;DHT22;31063;48.356;10.896;2022-09-14T08:16:04;22.00;99.90
45329;DHT22;31063;48.356;10.896;2022-09-14T08:18:31;22.10;99.90
45329;DHT22;31063;48.356;10.896;2022-09-14T08:21:06;22.20;99.90
45329;DHT22;31063;48.356;10.896;2022-09-14T08:23:33;22.30;99.90
45329;DHT22;31063;48.356;10.896;2022-09-14T08:26:02;22.40;99.90
45329;DHT22;31063;48.356;10.896;2022-09-14T08:28:28;22.50;99.90
45329;DHT22;31063;48.356;10.896;2022-09-14T08:30:54;22.60;99.90
45329;DHT22;31063;48.356;10.896;2022-09-14T08:33:19;22.70;99.90
45329;DHT22;31063;48.356;10.896;2022-09-14T08:35:45;22.70;99.90
45329;DHT22;31063;48.356;10.896;2022-09-14T08:38:10;22.70;99.90
45329;DHT22;31063;48.356;10.896;2022-09-14T08:40:45;22.80;99.90
45329;DHT22;31063;48.356;10.896;2022-09-14T08:43:12;22.80;99.90
45329;DHT22;31063;48.356;10.896;2022-09-14T08:45:41;22.90;99.90
45329;DHT22;31063;48.356;10.896;2022-09-14T08:48:18;22.90;99.90
45329;DHT22;31063;48.356;10.896;2022-09-14T08:50:44;22.90;99.90
45329;DHT22;31063;48.356;10.896;2022-09-14T08:53:10;23.00;99.90
45329;DHT22;31063;48.356;10.896;2022-09-14T08:55:45;23.00;99.90
45329;DHT22;31063;48.356;10.896;2022-09-14T08:58:31;23.00;99.90
45329;DHT22;31063;48.356;10.896;2022-09-14T09:01:16;23.00;99.90
45329;DHT22;31063;48.356;10.896;2022-09-14T09:06:36;22.90;99.90
45329;DHT22;31063;48.356;10.896;2022-09-14T09:09:42;23.00;99.90
45329;DHT22;31063;48.356;10.896;2022-09-14T09:12:13;23.00;99.90
45329;DHT22;31063;48.356;10.896;2022-09-14T09:14:49;23.10;99.90
45329;DHT22;31063;48.356;10.896;2022-09-14T09:17:21;23.10;99.90
45329;DHT22;31063;48.356;10.896;2022-09-14T09:22:33;23.20;99.90
45329;DHT22;31063;48.356;10.896;2022-09-14T09:25:03;23.30;99.90
45329;DHT22;31063;48.356;10.896;2022-09-14T09:27:28;23.40;99.90
45329;DHT22;31063;48.356;10.896;2022-09-14T09:29:54;23.50;99.90
45329;DHT22;31063;48.356;10.896;2022-09-14T09:32:23;23.60;99.90
45329;DHT22;31063;48.356;10.896;2022-09-14T09:34:49;23.70;99.90
45329;DHT22;31063;48.356;10.896;2022-09-14T09:37:19;23.70;99.90
45329;DHT22;31063;48.356;10.896;2022-09-14T09:39:46;23.80;99.90
45329;DHT22;31063;48.356;10.896;2022-09-14T09:45:10;23.90;99.90
45329;DHT22;31063;48.356;10.896;2022-09-14T09:47:38;24.00;99.90
45329;DHT22;31063;48.356;10.896;2022-09-14T09:50:24;24.00;99.90
45329;DHT22;31063;48.356;10.896;2022-09-14T09:52:56;24.00;99.90
45329;DHT22;31063;48.356;10.896;2022-09-14T09:55:27;24.10;99.90
45329;DHT22;31063;48.356;10.896;2022-09-14T09:57:55;24.20;99.90
45329;DHT22;31063;48.356;10.896;2022-09-14T10:00:22;24.30;99.90
45329;DHT22;31063;48.356;10.896;2022-09-14T10:02:49;24.40;99.90
45329;DHT22;31063;48.356;10.896;2022-09-14T10:05:19;24.50;99.90
45329;DHT22;31063;48.356;10.896;2022-09-14T10:10:16;24.50;99.90
45329;DHT22;31063;48.356;10.896;2022-09-14T10:12:48;24.50;99.90
45329;DHT22;31063;48.356;10.896;2022-09-14T10:15:23;24.60;99.90
45329;DHT22;31063;48.356;10.896;2022-09-14T10:18:18;24.50;99.90
45329;DHT22;31063;48.356;10.896;2022-09-14T10:21:05;24.60;99.90
45329;DHT22;31063;48.356;10.896;2022-09-14T10:23:33;24.60;99.90
45329;DHT22;31063;48.356;10.896;2022-09-14T10:28:48;24.60;99.90
45329;DHT22;31063;48.356;10.896;2022-09-14T10:33:40;24.60;99.90
45329;DHT22;31063;48.356;10.896;2022-09-14T10:36:36;24.60;99.90
45329;DHT22;31063;48.356;10.896;2022-09-14T10:39:27;24.50;99.90
45329;DHT22;31063;48.356;10.896;2022-09-14T11:09:16;24.70;99.90
45329;DHT22;31063;48.356;10.896;2022-09-14T11:11:51;24.80;99.90
45329;DHT22;31063;48.356;10.896;2022-09-14T11:14:46;24.80;99.90
45329;DHT22;31063;48.356;10.896;2022-09-14T11:23:11;24.90;99.90
45329;DHT22;31063;48.356;10.896;2022-09-14T11:26:02;24.90;99.90
45329;DHT22;31063;48.356;10.896;2022-09-14T11:28:33;24.90;99.90
45329;DHT22;31063;48.356;10.896;2022-09-14T11:31:31;25.00;99.90
45329;DHT22;31063;48.356;10.896;2022-09-14T11:34:20;25.00;99.90
45329;DHT22;31063;48.356;10.896;2022-09-14T11:36:54;25.10;99.90
45329;DHT22;31063;48.356;10.896;2022-09-14T11:39:35;25.20;99.90
45329;DHT22;31063;48.356;10.896;2022-09-14T11:44:38;25.40;99.90
45329;DHT22;31063;48.356;10.896;2022-09-14T11:52:22;25.50;99.90
45329;DHT22;31063;48.356;10.896;2022-09-14T11:54:49;25.60;99.90
45329;DHT22;31063;48.356;10.896;2022-09-14T11:57:21;25.60;99.90
45329;DHT22;31063;48.356;10.896;2022-09-14T11:59:50;25.70;99.90
45329;DHT22;31063;48.356;10.896;2022-09-14T12:02:43;25.70;99.90
45329;DHT22;31063;48.356;10.896;2022-09-14T12:13:18;25.80;99.90
45329;DHT22;31063;48.356;10.896;2022-09-14T12:15:43;25.80;99.90
45329;DHT22;31063;48.356;10.896;2022-09-14T12:20:43;25.80;99.90
45329;DHT22;31063;48.356;10.896;2022-09-14T12:23:25;25.70;99.90
45329;DHT22;31063;48.356;10.896;2022-09-14T12:31:06;25.60;99.90
45329;DHT22;31063;48.356;10.896;2022-09-14T13:05:13;25.10;99.90
45329;DHT22;31063;48.356;10.896;2022-09-14T13:07:41;25.10;99.90
45329;DHT22;31063;48.356;10.896;2022-09-14T13:10:06;25.00;99.90
45329;DHT22;31063;48.356;10.896;2022-09-14T13:15:01;25.00;99.90
45329;DHT22;31063;48.356;10.896;2022-09-14T13:17:27;25.00;99.90
45329;DHT22;31063;48.356;10.896;2022-09-14T13:20:01;25.00;99.90
45329;DHT22;31063;48.356;10.896;2022-09-14T13:22:31;25.00;99.90
45329;DHT22;31063;48.356;10.896;2022-09-14T13:24:58;25.20;99.90
45329;DHT22;31063;48.356;10.896;2022-09-14T13:27:29;25.30;99.90
45329;DHT22;31063;48.356;10.896;2022-09-14T13:30:19;25.40;99.90
45329;DHT22;31063;48.356;10.896;2022-09-14T13:32:49;25.50;99.90
45329;DHT22;31063;48.356;10.896;2022-09-14T13:37:57;25.30;99.90
45329;DHT22;31063;48.356;10.896;2022-09-14T13:40:25;25.40;99.90
45329;DHT22;31063;48.356;10.896;2022-09-14T13:42:53;25.50;99.90
45329;DHT22;31063;48.356;10.896;2022-09-14T13:45:19;25.60;99.90
45329;DHT22;31063;48.356;10.896;2022-09-14T13:47:46;25.70;99.90
45329;DHT22;31063;48.356;10.896;2022-09-14T13:50:12;25.70;99.90
45329;DHT22;31063;48.356;10.896;2022-09-14T13:52:40;25.70;99.90
45329;DHT22;31063;48.356;10.896;2022-09-14T14:00:57;25.70;99.90
45329;DHT22;31063;48.356;10.896;2022-09-14T14:03:24;25.70;99.90
45329;DHT22;31063;48.356;10.896;2022-09-14T14:05:51;25.50;99.90
45329;DHT22;31063;48.356;10.896;2022-09-14T14:08:37;24.60;99.90
45329;DHT22;31063;48.356;10.896;2022-09-14T14:11:05;23.60;99.90
45329;DHT22;31063;48.356;10.896;2022-09-14T14:13:39;23.00;99.90
45329;DHT22;31063;48.356;10.896;2022-09-14T14:18:41;22.30;99.90
45329;DHT22;31063;48.356;10.896;2022-09-14T14:23:49;21.90;99.90
45329;DHT22;31063;48.356;10.896;2022-09-14T14:26:24;21.80;99.90
45329;DHT22;31063;48.356;10.896;2022-09-14T14:28:52;21.70;99.90
45329;DHT22;31063;48.356;10.896;2022-09-14T14:31:20;21.40;99.90
45329;DHT22;31063;48.356;10.896;2022-09-14T14:33:51;21.10;99.90
45329;DHT22;31063;48.356;10.896;2022-09-14T14:36:18;20.70;99.90
45329;DHT22;31063;48.356;10.896;2022-09-14T14:38:44;20.10;99.90
45329;DHT22;31063;48.356;10.896;2022-09-14T14:41:14;19.60;99.90
45329;DHT22;31063;48.356;10.896;2022-09-14T14:43:44;19.30;99.90
45329;DHT22;31063;48.356;10.896;2022-09-14T14:46:12;19.00;99.90
45329;DHT22;31063;48.356;10.896;2022-09-14T14:48:39;18.90;99.90
45329;DHT22;31063;48.356;10.896;2022-09-14T14:51:05;18.80;99.90
45329;DHT22;31063;48.356;10.896;2022-09-14T14:53:31;18.70;99.90
45329;DHT22;31063;48.356;10.896;2022-09-14T14:55:57;18.70;99.90
45329;DHT22;31063;48.356;10.896;2022-09-14T14:58:23;18.70;99.90
45329;DHT22;31063;48.356;10.896;2022-09-14T15:00:49;18.70;99.90
45329;DHT22;31063;48.356;10.896;2022-09-14T15:03:16;18.70;99.90
45329;DHT22;31063;48.356;10.896;2022-09-14T15:05:44;18.80;99.90
45329;DHT22;31063;48.356;10.896;2022-09-14T15:08:11;18.80;99.90
45329;DHT22;31063;48.356;10.896;2022-09-14T15:10:38;18.80;99.90
45329;DHT22;31063;48.356;10.896;2022-09-14T15:13:05;18.80;99.90
45329;DHT22;31063;48.356;10.896;2022-09-14T15:15:31;18.70;99.90
45329;DHT22;31063;48.356;10.896;2022-09-14T15:17:57;18.80;99.90
45329;DHT22;31063;48.356;10.896;2022-09-14T15:20:23;18.80;99.90
45329;DHT22;31063;48.356;10.896;2022-09-14T15:22:49;18.80;99.90
45329;DHT22;31063;48.356;10.896;2022-09-14T15:25:16;18.80;99.90
45329;DHT22;31063;48.356;10.896;2022-09-14T15:27:42;18.70;99.90
45329;DHT22;31063;48.356;10.896;2022-09-14T15:30:09;18.70;99.90
45329;DHT22;31063;48.356;10.896;2022-09-14T15:32:35;18.70;99.90
45329;DHT22;31063;48.356;10.896;2022-09-14T15:35:01;18.70;99.90
45329;DHT22;31063;48.356;10.896;2022-09-14T15:37:27;18.60;99.90
45329;DHT22;31063;48.356;10.896;2022-09-14T15:39:53;18.60;99.90
45329;DHT22;31063;48.356;10.896;2022-09-14T15:42:19;18.60;99.90
45329;DHT22;31063;48.356;10.896;2022-09-14T15:44:45;18.50;99.90
45329;DHT22;31063;48.356;10.896;2022-09-14T15:47:11;18.50;99.90
45329;DHT22;31063;48.356;10.896;2022-09-14T15:49:39;18.60;99.90
45329;DHT22;31063;48.356;10.896;2022-09-14T15:52:04;18.60;99.90
45329;DHT22;31063;48.356;10.896;2022-09-14T15:54:33;18.60;99.90
45329;DHT22;31063;48.356;10.896;2022-09-14T15:56:58;18.60;99.90
45329;DHT22;31063;48.356;10.896;2022-09-14T15:59:25;18.70;99.90
45329;DHT22;31063;48.356;10.896;2022-09-14T16:01:51;18.80;99.90
45329;DHT22;31063;48.356;10.896;2022-09-14T16:04:17;18.80;99.90
45329;DHT22;31063;48.356;10.896;2022-09-14T16:06:43;18.90;99.90
45329;DHT22;31063;48.356;10.896;2022-09-14T16:09:11;19.00;99.90
45329;DHT22;31063;48.356;10.896;2022-09-14T16:11:37;19.10;99.90
45329;DHT22;31063;48.356;10.896;2022-09-14T16:14:04;19.20;99.90
45329;DHT22;31063;48.356;10.896;2022-09-14T16:16:31;19.20;99.90
45329;DHT22;31063;48.356;10.896;2022-09-14T16:18:57;19.20;99.90
45329;DHT22;31063;48.356;10.896;2022-09-14T16:21:24;19.20;99.90
45329;DHT22;31063;48.356;10.896;2022-09-14T16:23:57;19.20;99.90
45329;DHT22;31063;48.356;10.896;2022-09-14T16:26:26;19.30;99.90
45329;DHT22;31063;48.356;10.896;2022-09-14T16:28:54;19.40;99.90
45329;DHT22;31063;48.356;10.896;2022-09-14T16:31:21;19.50;99.90
45329;DHT22;31063;48.356;10.896;2022-09-14T16:33:49;19.60;99.90
45329;DHT22;31063;48.356;10.896;2022-09-14T16:36:18;19.70;99.90
45329;DHT22;31063;48.356;10.896;2022-09-14T16:38:44;19.80;99.90
45329;DHT22;31063;48.356;10.896;2022-09-14T16:41:11;19.90;99.90
45329;DHT22;31063;48.356;10.896;2022-09-14T16:43:37;19.90;99.90
45329;DHT22;31063;48.356;10.896;2022-09-14T16:48:33;19.80;99.90
45329;DHT22;31063;48.356;10.896;2022-09-14T16:50:59;19.80;99.90
45329;DHT22;31063;48.356;10.896;2022-09-14T16:53:28;19.70;99.90
45329;DHT22;31063;48.356;10.896;2022-09-14T16:56:01;19.60;99.90
45329;DHT22;31063;48.356;10.896;2022-09-14T16:58:27;19.60;99.90
45329;DHT22;31063;48.356;10.896;2022-09-14T17:00:53;19.50;99.90
45329;DHT22;31063;48.356;10.896;2022-09-14T17:03:19;19.40;99.90
45329;DHT22;31063;48.356;10.896;2022-09-14T17:05:45;19.40;99.90
45329;DHT22;31063;48.356;10.896;2022-09-14T17:08:10;19.40;99.90
45329;DHT22;31063;48.356;10.896;2022-09-14T17:10:36;19.30;99.90
45329;DHT22;31063;48.356;10.896;2022-09-14T17:13:01;19.30;99.90
45329;DHT22;31063;48.356;10.896;2022-09-14T17:15:27;19.30;99.90
45329;DHT22;31063;48.356;10.896;2022-09-14T17:17:54;19.30;99.90
45329;DHT22;31063;48.356;10.896;2022-09-14T17:20:19;19.20;99.90
45329;DHT22;31063;48.356;10.896;2022-09-14T17:22:45;19.20;99.90
45329;DHT22;31063;48.356;10.896;2022-09-14T17:25:10;19.20;99.90
45329;DHT22;31063;48.356;10.896;2022-09-14T17:27:36;19.20;99.90
45329;DHT22;31063;48.356;10.896;2022-09-14T17:30:03;19.10;99.90
45329;DHT22;31063;48.356;10.896;2022-09-14T17:32:29;19.10;99.90
45329;DHT22;31063;48.356;10.896;2022-09-14T17:34:55;19.10;99.90
45329;DHT22;31063;48.356;10.896;2022-09-14T17:37:21;19.00;99.90
45329;DHT22;31063;48.356;10.896;2022-09-14T17:39:48;19.00;99.90
45329;DHT22;31063;48.356;10.896;2022-09-14T17:42:14;18.90;99.90
45329;DHT22;31063;48.356;10.896;2022-09-14T17:44:39;19.00;99.90
45329;DHT22;31063;48.356;10.896;2022-09-14T17:47:05;18.90;99.90
45329;DHT22;31063;48.356;10.896;2022-09-14T17:49:31;18.90;99.90
45329;DHT22;31063;48.356;10.896;2022-09-14T17:51:56;18.90;99.90
45329;DHT22;31063;48.356;10.896;2022-09-14T17:54:22;18.80;99.90
45329;DHT22;31063;48.356;10.896;2022-09-14T17:56:47;18.90;99.90
45329;DHT22;31063;48.356;10.896;2022-09-14T17:59:16;18.80;99.90
45329;DHT22;31063;48.356;10.896;2022-09-14T18:01:42;18.80;99.90
45329;DHT22;31063;48.356;10.896;2022-09-14T18:04:09;18.70;99.90
45329;DHT22;31063;48.356;10.896;2022-09-14T18:06:38;18.80;99.90
45329;DHT22;31063;48.356;10.896;2022-09-14T18:09:07;18.70;99.90
45329;DHT22;31063;48.356;10.896;2022-09-14T18:11:34;18.70;99.90